sensor_id;sensor_type;location;lat;lon;timestamp;pressure;altitude;pressure_sealevel;temperature;humidity
74268;BME280;62638;51.362;12.472;2022-12-07T00:01:32;100070.16;;;2.11;100.00
74268;BME280;62638;51.362;12.472;2022-12-07T00:04:00;100076.38;;;2.10;100.00
74268;BME280;62638;51.362;12.472;2022-12-07T00:06:37;100077.22;;;2.11;100.00
74268;BME280;62638;51.362;12.472;2022-12-07T00:09:06;100074.66;;;2.09;100.00
74268;BME280;62638;51.362;12.472;2022-12-07T00:11:33;100063.25;;;2.09;100.00
74268;BME280;62638;51.362;12.472;2022-12-07T00:14:01;100063.63;;;2.17;100.00
74268;BME280;62638;51.362;12.472;2022-12-07T00:16:30;100067.69;;;2.08;100.00
74268;BME280;62638;51.362;12.472;2022-12-07T00:18:56;100064.59;;;2.02;100.00
74268;BME280;62638;51.362;12.472;2022-12-07T00:21:27;100067.59;;;2.10;100.00
74268;BME280;62638;51.362;12.472;2022-12-07T00:23:54;100060.53;;;2.10;100.00
74268;BME280;62638;51.362;12.472;2022-12-07T00:26:25;100051.00;;;1.94;100.00
74268;BME280;62638;51.362;12.472;2022-12-07T00:28:52;100050.53;;;1.87;100.00
74268;BME280;62638;51.362;12.472;2022-12-07T00:31:21;100049.28;;;1.78;100.00
74268;BME280;62638;51.362;12.472;2022-12-07T00:33:47;100049.69;;;1.72;100.00
74268;BME280;62638;51.362;12.472;2022-12-07T00:36:15;100046.19;;;1.72;100.00
74268;BME280;62638;51.362;12.472;2022-12-07T00:38:41;100048.28;;;1.81;100.00
74268;BME280;62638;51.362;12.472;2022-12-07T00:41:19;100043.25;;;1.91;100.00
74268;BME280;62638;51.362;12.472;2022-12-07T00:43:46;100047.50;;;1.93;100.00
74268;BME280;62638;51.362;12.472;2022-12-07T00:46:13;100047.69;;;1.90;100.00
74268;BME280;62638;51.362;12.472;2022-12-07T00:48:39;100037.13;;;1.90;100.00
74268;BME280;62638;51.362;12.472;2022-12-07T00:51:05;100032.88;;;1.88;100.00
74268;BME280;62638;51.362;12.472;2022-12-07T00:53:34;100027.41;;;1.91;100.00
74268;BME280;62638;51.362;12.472;2022-12-07T00:56:05;100032.31;;;1.82;100.00
74268;BME280;62638;51.362;12.472;2022-12-07T00:58:30;100032.13;;;1.71;100.00
74268;BME280;62638;51.362;12.472;2022-12-07T01:01:00;100029.28;;;1.60;100.00
74268;BME280;62638;51.362;12.472;2022-12-07T01:03:26;100029.66;;;1.54;100.00
74268;BME280;62638;51.362;12.472;2022-12-07T01:05:52;100027.50;;;1.47;100.00
74268;BME280;62638;51.362;12.472;2022-12-07T01:08:18;100033.22;;;1.39;100.00
74268;BME280;62638;51.362;12.472;2022-12-07T01:10:44;100031.13;;;1.30;100.00
74268;BME280;62638;51.362;12.472;2022-12-07T01:13:10;100029.47;;;1.13;100.00
74268;BME280;62638;51.362;12.472;2022-12-07T01:15:39;100034.22;;;1.22;100.00
74268;BME280;62638;51.362;12.472;2022-12-07T01:18:05;100034.59;;;1.16;100.00
74268;BME280;62638;51.362;12.472;2022-12-07T01:20:30;100026.09;;;1.11;100.00
74268;BME280;62638;51.362;12.472;2022-12-07T01:22:55;100024.94;;;1.01;100.00
74268;BME280;62638;51.362;12.472;2022-12-07T01:25:21;100028.50;;;1.00;100.00
74268;BME280;62638;51.362;12.472;2022-12-07T01:27:46;100021.91;;;0.93;100.00
74268;BME280;62638;51.362;12.472;2022-12-07T01:30:12;100025.91;;;0.84;100.00
74268;BME280;62638;51.362;12.472;2022-12-07T01:32:37;100021.97;;;0.91;100.00
74268;BME280;62638;51.362;12.472;2022-12-07T01:35:03;100023.09;;;0.87;100.00
74268;BME280;62638;51.362;12.472;2022-12-07T01:37:36;100020.72;;;0.83;100.00
74268;BME280;62638;51.362;12.472;2022-12-07T01:40:03;100007.25;;;0.73;100.00
74268;BME280;62638;51.362;12.472;2022-12-07T01:42:29;100013.59;;;0.69;100.00
74268;BME280;62638;51.362;12.472;2022-12-07T01:45:38;100005.63;;;0.71;100.00
74268;BME280;62638;51.362;12.472;2022-12-07T01:48:04;100003.63;;;0.60;100.00
74268;BME280;62638;51.362;12.472;2022-12-07T01:50:31;100004.13;;;0.51;100.00
74268;BME280;62638;51.362;12.472;2022-12-07T01:52:58;100002.25;;;0.53;100.00
74268;BME280;62638;51.362;12.472;2022-12-07T01:55:27;100003.63;;;0.44;100.00
74268;BME280;62638;51.362;12.472;2022-12-07T01:57:53;100003.53;;;0.46;100.00
74268;BME280;62638;51.362;12.472;2022-12-07T02:00:19;100006.16;;;0.46;100.00
74268;BME280;62638;51.362;12.472;2022-12-07T02:02:46;100001.66;;;0.48;100.00
74268;BME280;62638;51.362;12.472;2022-12-07T02:05:13;99999.97;;;0.47;100.00
74268;BME280;62638;51.362;12.472;2022-12-07T02:07:38;99998.16;;;0.47;100.00
74268;BME280;62638;51.362;12.472;2022-12-07T02:10:25;99994.25;;;0.39;100.00
74268;BME280;62638;51.362;12.472;2022-12-07T02:15:44;99989.53;;;0.30;100.00
74268;BME280;62638;51.362;12.472;2022-12-07T02:20:58;99987.22;;;0.39;100.00
74268;BME280;62638;51.362;12.472;2022-12-07T02:24:04;99976.78;;;0.38;100.00
74268;BME280;62638;51.362;12.472;2022-12-07T02:26:45;99981.78;;;0.27;100.00
74268;BME280;62638;51.362;12.472;2022-12-07T02:29:33;99980.13;;;0.26;100.00
74268;BME280;62638;51.362;12.472;2022-12-07T02:32:08;99981.03;;;0.25;100.00
74268;BME280;62638;51.362;12.472;2022-12-07T02:34:52;99972.22;;;0.26;100.00
74268;BME280;62638;51.362;12.472;2022-12-07T02:37:44;99972.97;;;0.28;100.00
74268;BME280;62638;51.362;12.472;2022-12-07T02:40:35;99967.75;;;0.26;100.00
74268;BME280;62638;51.362;12.472;2022-12-07T02:43:04;99959.97;;;0.25;100.00
74268;BME280;62638;51.362;12.472;2022-12-07T02:45:34;99950.97;;;0.29;100.00
74268;BME280;62638;51.362;12.472;2022-12-07T02:48:00;99950.63;;;0.19;100.00
74268;BME280;62638;51.362;12.472;2022-12-07T02:50:27;99942.13;;;0.14;100.00
74268;BME280;62638;51.362;12.472;2022-12-07T02:52:54;99943.84;;;0.15;100.00
74268;BME280;62638;51.362;12.472;2022-12-07T02:55:25;99941.34;;;0.28;100.00
74268;BME280;62638;51.362;12.472;2022-12-07T02:58:20;99929.22;;;0.25;100.00
74268;BME280;62638;51.362;12.472;2022-12-07T03:01:13;99935.50;;;0.23;100.00
74268;BME280;62638;51.362;12.472;2022-12-07T03:03:46;99925.47;;;0.29;100.00
74268;BME280;62638;51.362;12.472;2022-12-07T03:06:24;99924.53;;;0.30;100.00
74268;BME280;62638;51.362;12.472;2022-12-07T03:09:00;99927.16;;;0.30;100.00
74268;BME280;62638;51.362;12.472;2022-12-07T03:11:54;99932.53;;;0.29;100.00
74268;BME280;62638;51.362;12.472;2022-12-07T03:14:26;99934.56;;;0.24;100.00
74268;BME280;62638;51.362;12.472;2022-12-07T03:19:26;99932.19;;;0.19;100.00
74268;BME280;62638;51.362;12.472;2022-12-07T03:22:19;99931.09;;;0.23;100.00
74268;BME280;62638;51.362;12.472;2022-12-07T03:24:53;99928.00;;;0.31;100.00
74268;BME280;62638;51.362;12.472;2022-12-07T03:27:22;99926.75;;;0.38;100.00
74268;BME280;62638;51.362;12.472;2022-12-07T03:29:57;99922.22;;;0.40;100.00
74268;BME280;62638;51.362;12.472;2022-12-07T03:32:48;99916.59;;;0.46;100.00
74268;BME280;62638;51.362;12.472;2022-12-07T03:35:28;99913.34;;;0.57;100.00
74268;BME280;62638;51.362;12.472;2022-12-07T03:38:37;99907.97;;;0.58;100.00
74268;BME280;62638;51.362;12.472;2022-12-07T03:41:06;99904.72;;;0.69;100.00
74268;BME280;62638;51.362;12.472;2022-12-07T03:43:34;99908.78;;;0.74;100.00
74268;BME280;62638;51.362;12.472;2022-12-07T03:46:11;99907.84;;;0.75;100.00
74268;BME280;62638;51.362;12.472;2022-12-07T03:48:46;99911.13;;;0.79;100.00
74268;BME280;62638;51.362;12.472;2022-12-07T03:51:28;99908.63;;;0.77;100.00
74268;BME280;62638;51.362;12.472;2022-12-07T03:54:09;99904.84;;;0.81;100.00
74268;BME280;62638;51.362;12.472;2022-12-07T03:56:36;99908.63;;;0.91;100.00
74268;BME280;62638;51.362;12.472;2022-12-07T03:59:02;99906.75;;;0.94;100.00
74268;BME280;62638;51.362;12.472;2022-12-07T04:01:27;99905.03;;;0.93;100.00
74268;BME280;62638;51.362;12.472;2022-12-07T04:03:52;99899.78;;;0.93;100.00
74268;BME280;62638;51.362;12.472;2022-12-07T04:06:17;99906.56;;;0.97;100.00
74268;BME280;62638;51.362;12.472;2022-12-07T04:08:43;99899.16;;;1.03;100.00
74268;BME280;62638;51.362;12.472;2022-12-07T04:11:08;99903.28;;;1.07;100.00
74268;BME280;62638;51.362;12.472;2022-12-07T04:13:34;99891.88;;;1.07;100.00
74268;BME280;62638;51.362;12.472;2022-12-07T04:16:19;99885.69;;;1.08;100.00
74268;BME280;62638;51.362;12.472;2022-12-07T04:18:45;99882.72;;;1.12;100.00
74268;BME280;62638;51.362;12.472;2022-12-07T04:21:11;99884.28;;;1.16;100.00
74268;BME280;62638;51.362;12.472;2022-12-07T04:23:36;99881.31;;;1.21;100.00
74268;BME280;62638;51.362;12.472;2022-12-07T04:26:01;99870.59;;;1.24;100.00
74268;BME280;62638;51.362;12.472;2022-12-07T04:28:27;99866.91;;;1.26;100.00
74268;BME280;62638;51.362;12.472;2022-12-07T04:30:52;99872.75;;;1.31;100.00
74268;BME280;62638;51.362;12.472;2022-12-07T04:33:17;99866.84;;;1.28;100.00
74268;BME280;62638;51.362;12.472;2022-12-07T04:35:43;99860.44;;;1.32;100.00
74268;BME280;62638;51.362;12.472;2022-12-07T04:38:08;99865.63;;;1.33;100.00
74268;BME280;62638;51.362;12.472;2022-12-07T04:40:34;99865.50;;;1.35;100.00
74268;BME280;62638;51.362;12.472;2022-12-07T04:42:59;99859.56;;;1.31;100.00
74268;BME280;62638;51.362;12.472;2022-12-07T04:45:24;99867.50;;;1.31;100.00
74268;BME280;62638;51.362;12.472;2022-12-07T04:47:50;99862.97;;;1.33;100.00
74268;BME280;62638;51.362;12.472;2022-12-07T04:50:15;99860.50;;;1.30;100.00
74268;BME280;62638;51.362;12.472;2022-12-07T04:52:41;99855.63;;;1.24;100.00
74268;BME280;62638;51.362;12.472;2022-12-07T04:55:06;99859.13;;;1.25;100.00
74268;BME280;62638;51.362;12.472;2022-12-07T04:57:32;99850.25;;;1.26;100.00
74268;BME280;62638;51.362;12.472;2022-12-07T04:59:57;99846.75;;;1.25;100.00
74268;BME280;62638;51.362;12.472;2022-12-07T05:02:22;99850.25;;;1.26;100.00
74268;BME280;62638;51.362;12.472;2022-12-07T05:04:48;99838.03;;;1.25;100.00
74268;BME280;62638;51.362;12.472;2022-12-07T05:07:13;99840.38;;;1.29;100.00
74268;BME280;62638;51.362;12.472;2022-12-07T05:09:38;99840.38;;;1.29;100.00
74268;BME280;62638;51.362;12.472;2022-12-07T05:12:03;99835.84;;;1.31;100.00
74268;BME280;62638;51.362;12.472;2022-12-07T05:14:29;99836.47;;;1.35;100.00
74268;BME280;62638;51.362;12.472;2022-12-07T05:16:54;99831.03;;;1.38;100.00
74268;BME280;62638;51.362;12.472;2022-12-07T05:19:20;99835.25;;;1.41;100.00
74268;BME280;62638;51.362;12.472;2022-12-07T05:21:45;99831.19;;;1.49;100.00
74268;BME280;62638;51.362;12.472;2022-12-07T05:24:13;99835.63;;;1.49;100.00
74268;BME280;62638;51.362;12.472;2022-12-07T05:26:39;99841.38;;;1.55;100.00
74268;BME280;62638;51.362;12.472;2022-12-07T05:29:04;99829.75;;;1.58;100.00
74268;BME280;62638;51.362;12.472;2022-12-07T05:31:30;99824.47;;;1.58;100.00
74268;BME280;62638;51.362;12.472;2022-12-07T05:33:56;99820.78;;;1.60;100.00
74268;BME280;62638;51.362;12.472;2022-12-07T05:36:21;99829.38;;;1.64;100.00
74268;BME280;62638;51.362;12.472;2022-12-07T05:38:47;99835.69;;;1.61;100.00
74268;BME280;62638;51.362;12.472;2022-12-07T05:41:15;99825.97;;;1.62;100.00
74268;BME280;62638;51.362;12.472;2022-12-07T05:43:59;99823.91;;;1.67;100.00
74268;BME280;62638;51.362;12.472;2022-12-07T05:46:25;99829.38;;;1.64;100.00
74268;BME280;62638;51.362;12.472;2022-12-07T05:48:50;99814.28;;;1.66;100.00
74268;BME280;62638;51.362;12.472;2022-12-07T05:51:16;99817.47;;;1.71;100.00
74268;BME280;62638;51.362;12.472;2022-12-07T05:53:41;99818.31;;;1.71;100.00
74268;BME280;62638;51.362;12.472;2022-12-07T05:56:07;99818.13;;;1.74;100.00
74268;BME280;62638;51.362;12.472;2022-12-07T05:58:32;99824.97;;;1.77;100.00
74268;BME280;62638;51.362;12.472;2022-12-07T06:01:15;99815.09;;;1.80;100.00
74268;BME280;62638;51.362;12.472;2022-12-07T06:03:41;99808.13;;;1.79;100.00
74268;BME280;62638;51.362;12.472;2022-12-07T06:06:06;99809.41;;;1.87;100.00
74268;BME280;62638;51.362;12.472;2022-12-07T06:08:31;99808.38;;;1.89;100.00
74268;BME280;62638;51.362;12.472;2022-12-07T06:10:57;99816.00;;;1.94;100.00
74268;BME280;62638;51.362;12.472;2022-12-07T06:13:41;99808.91;;;1.94;100.00
74268;BME280;62638;51.362;12.472;2022-12-07T06:16:06;99801.81;;;1.95;100.00
74268;BME280;62638;51.362;12.472;2022-12-07T06:18:32;99806.91;;;1.98;100.00
74268;BME280;62638;51.362;12.472;2022-12-07T06:20:57;99806.06;;;1.97;100.00
74268;BME280;62638;51.362;12.472;2022-12-07T06:23:23;99803.44;;;1.97;100.00
74268;BME280;62638;51.362;12.472;2022-12-07T06:25:48;99800.78;;;1.97;100.00
74268;BME280;62638;51.362;12.472;2022-12-07T06:28:13;99811.03;;;2.02;100.00
74268;BME280;62638;51.362;12.472;2022-12-07T06:30:39;99813.78;;;2.00;100.00
74268;BME280;62638;51.362;12.472;2022-12-07T06:33:04;99809.56;;;1.98;100.00
74268;BME280;62638;51.362;12.472;2022-12-07T06:35:32;99810.78;;;1.92;100.00
74268;BME280;62638;51.362;12.472;2022-12-07T06:37:57;99810.25;;;1.87;100.00
74268;BME280;62638;51.362;12.472;2022-12-07T06:40:23;99797.13;;;1.86;100.00
74268;BME280;62638;51.362;12.472;2022-12-07T06:42:48;99805.91;;;1.86;100.00
74268;BME280;62638;51.362;12.472;2022-12-07T06:45:13;99812.97;;;1.86;100.00
74268;BME280;62638;51.362;12.472;2022-12-07T06:47:39;99812.34;;;1.82;100.00
74268;BME280;62638;51.362;12.472;2022-12-07T06:50:04;99818.03;;;1.76;100.00
74268;BME280;62638;51.362;12.472;2022-12-07T06:52:31;99822.34;;;1.77;100.00
74268;BME280;62638;51.362;12.472;2022-12-07T06:54:56;99822.50;;;1.88;100.00
74268;BME280;62638;51.362;12.472;2022-12-07T06:57:21;99823.91;;;1.94;100.00
74268;BME280;62638;51.362;12.472;2022-12-07T06:59:47;99824.97;;;2.04;100.00
74268;BME280;62638;51.362;12.472;2022-12-07T07:02:13;99818.53;;;2.08;100.00
74268;BME280;62638;51.362;12.472;2022-12-07T07:04:38;99818.88;;;2.16;100.00
74268;BME280;62638;51.362;12.472;2022-12-07T07:07:03;99821.34;;;2.19;100.00
74268;BME280;62638;51.362;12.472;2022-12-07T07:09:29;99827.34;;;2.21;100.00
74268;BME280;62638;51.362;12.472;2022-12-07T07:11:54;99816.06;;;2.19;100.00
74268;BME280;62638;51.362;12.472;2022-12-07T07:14:20;99829.16;;;2.20;100.00
74268;BME280;62638;51.362;12.472;2022-12-07T07:16:46;99829.59;;;2.27;100.00
74268;BME280;62638;51.362;12.472;2022-12-07T07:19:11;99825.91;;;2.29;100.00
74268;BME280;62638;51.362;12.472;2022-12-07T07:21:37;99829.38;;;2.30;100.00
74268;BME280;62638;51.362;12.472;2022-12-07T07:24:02;99842.09;;;2.38;100.00
74268;BME280;62638;51.362;12.472;2022-12-07T07:26:27;99831.63;;;2.36;100.00
74268;BME280;62638;51.362;12.472;2022-12-07T07:28:53;99832.38;;;2.38;100.00
74268;BME280;62638;51.362;12.472;2022-12-07T07:31:18;99835.00;;;2.38;100.00
74268;BME280;62638;51.362;12.472;2022-12-07T07:33:45;99842.84;;;2.40;100.00
74268;BME280;62638;51.362;12.472;2022-12-07T07:36:11;99839.13;;;2.42;100.00
74268;BME280;62638;51.362;12.472;2022-12-07T07:38:36;99844.88;;;2.49;100.00
74268;BME280;62638;51.362;12.472;2022-12-07T07:41:02;99839.47;;;2.50;100.00
74268;BME280;62638;51.362;12.472;2022-12-07T07:43:27;99845.28;;;2.55;100.00
74268;BME280;62638;51.362;12.472;2022-12-07T07:45:52;99844.78;;;2.63;100.00
74268;BME280;62638;51.362;12.472;2022-12-07T07:48:18;99833.69;;;2.58;100.00
74268;BME280;62638;51.362;12.472;2022-12-07T07:50:43;99846.91;;;2.58;100.00
74268;BME280;62638;51.362;12.472;2022-12-07T07:53:09;99843.41;;;2.57;100.00
74268;BME280;62638;51.362;12.472;2022-12-07T07:55:34;99837.56;;;2.52;100.00
74268;BME280;62638;51.362;12.472;2022-12-07T07:58:00;99840.44;;;2.49;100.00
74268;BME280;62638;51.362;12.472;2022-12-07T08:00:25;99839.81;;;2.46;100.00
74268;BME280;62638;51.362;12.472;2022-12-07T08:02:51;99838.81;;;2.47;100.00
74268;BME280;62638;51.362;12.472;2022-12-07T08:05:16;99850.88;;;2.51;100.00
74268;BME280;62638;51.362;12.472;2022-12-07T08:07:42;99848.59;;;2.59;100.00
74268;BME280;62638;51.362;12.472;2022-12-07T08:10:09;99846.16;;;2.68;100.00
74268;BME280;62638;51.362;12.472;2022-12-07T08:12:39;99848.16;;;2.65;100.00
74268;BME280;62638;51.362;12.472;2022-12-07T08:15:27;99844.66;;;2.52;100.00
74268;BME280;62638;51.362;12.472;2022-12-07T08:17:52;99848.38;;;2.49;100.00
74268;BME280;62638;51.362;12.472;2022-12-07T08:20:18;99845.41;;;2.41;100.00
74268;BME280;62638;51.362;12.472;2022-12-07T08:22:43;99851.19;;;2.46;100.00
74268;BME280;62638;51.362;12.472;2022-12-07T08:25:09;99854.63;;;2.61;100.00
74268;BME280;62638;51.362;12.472;2022-12-07T08:27:34;99848.81;;;2.68;100.00
74268;BME280;62638;51.362;12.472;2022-12-07T08:29:59;99845.97;;;2.71;100.00
74268;BME280;62638;51.362;12.472;2022-12-07T08:32:25;99854.41;;;2.89;100.00
74268;BME280;62638;51.362;12.472;2022-12-07T08:34:51;99840.88;;;2.94;100.00
74268;BME280;62638;51.362;12.472;2022-12-07T08:37:17;99841.63;;;2.96;100.00
74268;BME280;62638;51.362;12.472;2022-12-07T08:39:42;99854.31;;;3.03;99.52
74268;BME280;62638;51.362;12.472;2022-12-07T08:42:08;99843.41;;;3.08;99.43
74268;BME280;62638;51.362;12.472;2022-12-07T08:44:33;99847.00;;;3.19;98.73
74268;BME280;62638;51.362;12.472;2022-12-07T08:47:01;99839.75;;;3.47;98.65
74268;BME280;62638;51.362;12.472;2022-12-07T08:49:31;99852.81;;;3.37;98.26
74268;BME280;62638;51.362;12.472;2022-12-07T08:51:58;99848.16;;;3.28;98.15
74268;BME280;62638;51.362;12.472;2022-12-07T08:54:24;99854.63;;;3.24;98.30
74268;BME280;62638;51.362;12.472;2022-12-07T08:56:50;99858.34;;;3.22;98.52
74268;BME280;62638;51.362;12.472;2022-12-07T08:59:19;99863.72;;;3.20;98.45
74268;BME280;62638;51.362;12.472;2022-12-07T09:01:45;99861.59;;;3.25;99.32
74268;BME280;62638;51.362;12.472;2022-12-07T09:04:11;99864.16;;;3.27;98.74
74268;BME280;62638;51.362;12.472;2022-12-07T09:06:37;99859.25;;;3.33;97.73
74268;BME280;62638;51.362;12.472;2022-12-07T09:09:03;99864.13;;;3.39;97.78
74268;BME280;62638;51.362;12.472;2022-12-07T09:11:29;99866.47;;;3.44;98.09
74268;BME280;62638;51.362;12.472;2022-12-07T09:13:55;99868.25;;;3.43;97.69
74268;BME280;62638;51.362;12.472;2022-12-07T09:16:20;99879.38;;;3.48;97.19
74268;BME280;62638;51.362;12.472;2022-12-07T09:18:46;99871.53;;;3.47;97.85
74268;BME280;62638;51.362;12.472;2022-12-07T09:21:11;99861.38;;;3.53;97.83
74268;BME280;62638;51.362;12.472;2022-12-07T09:23:36;99868.56;;;3.51;98.02
74268;BME280;62638;51.362;12.472;2022-12-07T09:26:03;99872.59;;;3.57;97.14
74268;BME280;62638;51.362;12.472;2022-12-07T09:28:30;99872.13;;;3.63;96.78
74268;BME280;62638;51.362;12.472;2022-12-07T09:30:56;99885.03;;;3.67;96.92
74268;BME280;62638;51.362;12.472;2022-12-07T09:33:21;99871.47;;;3.72;96.99
74268;BME280;62638;51.362;12.472;2022-12-07T09:35:48;99876.06;;;3.70;96.32
74268;BME280;62638;51.362;12.472;2022-12-07T09:38:13;99870.09;;;3.79;97.12
74268;BME280;62638;51.362;12.472;2022-12-07T09:40:39;99866.69;;;3.77;96.44
74268;BME280;62638;51.362;12.472;2022-12-07T09:43:05;99867.66;;;3.76;96.54
74268;BME280;62638;51.362;12.472;2022-12-07T09:45:37;99860.25;;;3.69;97.44
74268;BME280;62638;51.362;12.472;2022-12-07T09:48:04;99868.44;;;3.65;97.80
74268;BME280;62638;51.362;12.472;2022-12-07T09:50:30;99863.25;;;3.51;99.66
74268;BME280;62638;51.362;12.472;2022-12-07T09:53:09;99853.97;;;3.33;100.00
74268;BME280;62638;51.362;12.472;2022-12-07T09:55:36;99847.53;;;3.25;100.00
74268;BME280;62638;51.362;12.472;2022-12-07T09:58:01;99842.56;;;3.20;100.00
74268;BME280;62638;51.362;12.472;2022-12-07T10:00:26;99846.28;;;3.17;100.00
74268;BME280;62638;51.362;12.472;2022-12-07T10:03:01;99849.03;;;3.16;100.00
74268;BME280;62638;51.362;12.472;2022-12-07T10:05:36;99845.09;;;3.22;100.00
74268;BME280;62638;51.362;12.472;2022-12-07T10:08:04;99836.53;;;3.18;100.00
74268;BME280;62638;51.362;12.472;2022-12-07T10:10:32;99829.84;;;3.25;100.00
74268;BME280;62638;51.362;12.472;2022-12-07T10:12:59;99837.47;;;3.30;100.00
74268;BME280;62638;51.362;12.472;2022-12-07T10:15:56;99832.41;;;3.27;100.00
74268;BME280;62638;51.362;12.472;2022-12-07T10:18:32;99833.03;;;3.30;100.00
74268;BME280;62638;51.362;12.472;2022-12-07T10:21:17;99833.03;;;3.30;100.00
74268;BME280;62638;51.362;12.472;2022-12-07T10:24:04;99829.31;;;3.33;100.00
74268;BME280;62638;51.362;12.472;2022-12-07T10:26:34;99830.34;;;3.43;100.00
74268;BME280;62638;51.362;12.472;2022-12-07T10:29:02;99826.19;;;3.51;100.00
74268;BME280;62638;51.362;12.472;2022-12-07T10:31:39;99825.44;;;3.62;100.00
74268;BME280;62638;51.362;12.472;2022-12-07T10:34:20;99822.25;;;3.70;100.00
74268;BME280;62638;51.362;12.472;2022-12-07T10:36:47;99823.25;;;3.80;100.00
74268;BME280;62638;51.362;12.472;2022-12-07T10:39:15;99824.22;;;3.79;100.00
74268;BME280;62638;51.362;12.472;2022-12-07T10:42:00;99829.53;;;3.79;100.00
74268;BME280;62638;51.362;12.472;2022-12-07T10:44:28;99827.06;;;3.88;100.00
74268;BME280;62638;51.362;12.472;2022-12-07T10:52:25;99827.16;;;3.87;99.12
74268;BME280;62638;51.362;12.472;2022-12-07T10:58:02;99816.56;;;3.87;99.44
74268;BME280;62638;51.362;12.472;2022-12-07T11:00:41;99816.31;;;3.90;99.48
74268;BME280;62638;51.362;12.472;2022-12-07T11:03:30;99811.78;;;3.92;99.04
74268;BME280;62638;51.362;12.472;2022-12-07T11:11:31;99809.78;;;4.06;98.14
74268;BME280;62638;51.362;12.472;2022-12-07T11:17:00;99811.88;;;4.14;97.46
74268;BME280;62638;51.362;12.472;2022-12-07T11:22:00;99806.94;;;4.09;97.86
74268;BME280;62638;51.362;12.472;2022-12-07T11:24:42;99811.09;;;4.01;97.54
74268;BME280;62638;51.362;12.472;2022-12-07T11:32:45;99809.84;;;3.70;98.58
74268;BME280;62638;51.362;12.472;2022-12-07T11:35:18;99806.81;;;3.51;100.00
74268;BME280;62638;51.362;12.472;2022-12-07T11:37:49;99808.78;;;3.36;100.00
74268;BME280;62638;51.362;12.472;2022-12-07T11:40:34;99805.00;;;3.28;100.00
74268;BME280;62638;51.362;12.472;2022-12-07T11:46:12;99802.13;;;3.31;100.00
74268;BME280;62638;51.362;12.472;2022-12-07T11:48:55;99802.13;;;3.31;100.00
74268;BME280;62638;51.362;12.472;2022-12-07T11:51:23;99806.13;;;3.36;100.00
74268;BME280;62638;51.362;12.472;2022-12-07T11:53:56;99794.25;;;3.42;100.00
74268;BME280;62638;51.362;12.472;2022-12-07T11:56:26;99802.28;;;3.53;100.00
74268;BME280;62638;51.362;12.472;2022-12-07T11:59:02;99801.94;;;3.57;100.00
74268;BME280;62638;51.362;12.472;2022-12-07T12:06:37;99797.13;;;3.62;100.00
74268;BME280;62638;51.362;12.472;2022-12-07T12:09:09;99791.41;;;3.69;100.00
74268;BME280;62638;51.362;12.472;2022-12-07T12:14:48;99788.72;;;3.81;100.00
74268;BME280;62638;51.362;12.472;2022-12-07T12:20:05;99785.81;;;3.84;100.00
74268;BME280;62638;51.362;12.472;2022-12-07T12:22:33;99774.50;;;3.82;100.00
74268;BME280;62638;51.362;12.472;2022-12-07T12:25:04;99774.78;;;3.90;100.00
74268;BME280;62638;51.362;12.472;2022-12-07T12:27:35;99777.72;;;3.98;100.00
74268;BME280;62638;51.362;12.472;2022-12-07T12:30:06;99774.13;;;4.10;100.00
74268;BME280;62638;51.362;12.472;2022-12-07T12:32:40;99773.28;;;4.10;100.00
74268;BME280;62638;51.362;12.472;2022-12-07T12:35:32;99782.72;;;4.14;100.00
74268;BME280;62638;51.362;12.472;2022-12-07T12:38:21;99773.78;;;4.15;100.00
74268;BME280;62638;51.362;12.472;2022-12-07T12:40:49;99774.53;;;4.17;100.00
74268;BME280;62638;51.362;12.472;2022-12-07T12:43:53;99773.59;;;4.18;99.32
74268;BME280;62638;51.362;12.472;2022-12-07T12:51:45;99761.28;;;4.17;98.20
74268;BME280;62638;51.362;12.472;2022-12-07T12:56:51;99765.91;;;4.26;96.91
74268;BME280;62638;51.362;12.472;2022-12-07T13:01:46;99763.84;;;4.30;96.14
74268;BME280;62638;51.362;12.472;2022-12-07T13:04:25;99771.56;;;4.33;95.31
74268;BME280;62638;51.362;12.472;2022-12-07T13:06:52;99774.56;;;4.28;94.21
74268;BME280;62638;51.362;12.472;2022-12-07T13:09:21;99772.06;;;4.27;93.88
74268;BME280;62638;51.362;12.472;2022-12-07T13:11:50;99773.63;;;4.29;94.28
74268;BME280;62638;51.362;12.472;2022-12-07T13:14:42;99777.97;;;4.30;93.16
74268;BME280;62638;51.362;12.472;2022-12-07T13:19:55;99773.25;;;4.34;92.35
74268;BME280;62638;51.362;12.472;2022-12-07T13:24:58;99773.25;;;4.34;92.15
74268;BME280;62638;51.362;12.472;2022-12-07T13:27:27;99774.13;;;4.34;92.56
74268;BME280;62638;51.362;12.472;2022-12-07T13:29:54;99764.47;;;4.33;92.30
74268;BME280;62638;51.362;12.472;2022-12-07T13:32:25;99768.69;;;4.36;92.34
74268;BME280;62638;51.362;12.472;2022-12-07T13:34:50;99765.22;;;4.35;91.66
74268;BME280;62638;51.362;12.472;2022-12-07T13:37:26;99765.22;;;4.35;91.06
74268;BME280;62638;51.362;12.472;2022-12-07T13:39:55;99776.19;;;4.42;90.30
74268;BME280;62638;51.362;12.472;2022-12-07T13:42:29;99762.81;;;4.43;90.64
74268;BME280;62638;51.362;12.472;2022-12-07T13:44:57;99774.47;;;4.41;89.82
74268;BME280;62638;51.362;12.472;2022-12-07T13:47:38;99757.97;;;4.37;90.31
74268;BME280;62638;51.362;12.472;2022-12-07T13:50:27;99770.38;;;4.37;89.67
74268;BME280;62638;51.362;12.472;2022-12-07T13:52:58;99768.81;;;4.34;89.95
74268;BME280;62638;51.362;12.472;2022-12-07T13:55:24;99764.56;;;4.32;89.43
74268;BME280;62638;51.362;12.472;2022-12-07T13:57:51;99773.63;;;4.29;89.79
74268;BME280;62638;51.362;12.472;2022-12-07T14:00:23;99776.59;;;4.25;90.03
74268;BME280;62638;51.362;12.472;2022-12-07T14:03:02;99780.81;;;4.27;90.53
74268;BME280;62638;51.362;12.472;2022-12-07T14:05:30;99777.81;;;4.21;90.21
74268;BME280;62638;51.362;12.472;2022-12-07T14:08:02;99772.25;;;4.24;89.90